createdAt,value
2022-12-19T00:03:25.634Z,57.57
2022-12-19T00:08:36.630Z,56.77
2022-12-19T00:13:42.214Z,57.54
2022-12-19T00:18:47.687Z,57.96
2022-12-19T00:23:51.984Z,57.65
2022-12-19T00:28:58.631Z,57.26
2022-12-19T00:34:02.710Z,57.88
2022-12-19T00:39:07.888Z,57.15
2022-12-19T00:44:15.533Z,57.27
2022-12-19T00:49:19.394Z,58.06
2022-12-19T00:54:23.010Z,58.69
2022-12-19T00:59:28.494Z,57.95
2022-12-19T01:04:35.660Z,57.96
2022-12-19T01:09:43.507Z,58.13
2022-12-19T01:14:50.214Z,58.40
2022-12-19T01:19:53.846Z,58.25
2022-12-19T01:24:57.281Z,58.21
2022-12-19T01:30:03.122Z,58.81
2022-12-19T01:35:09.931Z,58.12
2022-12-19T01:40:25.525Z,58.54
2022-12-19T01:45:34.670Z,58.55
2022-12-19T01:50:56.217Z,58.73
2022-12-19T01:56:11.225Z,59.18
2022-12-19T02:01:17.874Z,59.16
2022-12-19T02:06:21.646Z,59.03
2022-12-19T02:11:25.328Z,58.53
2022-12-19T02:16:42.581Z,58.85
2022-12-19T02:21:54.829Z,58.28
2022-12-19T02:27:35.925Z,58.45
2022-12-19T02:32:51.994Z,59.04
2022-12-19T02:38:05.704Z,59.13
2022-12-19T02:43:13.295Z,59.50
2022-12-19T02:48:20.089Z,59.21
2022-12-19T02:53:24.208Z,59.79
2022-12-19T02:58:49.804Z,59.00
2022-12-19T03:04:05.716Z,59.41
2022-12-19T03:09:17.957Z,58.65
2022-12-19T03:14:22.591Z,59.17
2022-12-19T03:19:27.688Z,59.06
2022-12-19T03:24:31.528Z,60.04
2022-12-19T03:29:38.977Z,60.71
2022-12-19T03:34:48.795Z,59.84
2022-12-19T03:40:00.557Z,59.95
2022-12-19T03:45:06.924Z,60.08
2022-12-19T03:50:12.675Z,60.01
2022-12-19T03:55:21.188Z,60.08
2022-12-19T04:00:26.090Z,60.92
2022-12-19T04:05:31.457Z,60.07
2022-12-19T04:10:40.007Z,61.45
2022-12-19T04:15:52.011Z,60.05
2022-12-19T04:21:03.719Z,60.53
2022-12-19T04:26:10.367Z,60.52
2022-12-19T04:31:16.511Z,60.20
2022-12-19T04:36:21.459Z,59.48
2022-12-19T04:41:25.175Z,60.34
2022-12-19T04:46:28.810Z,60.45
2022-12-19T04:51:33.878Z,59.57
2022-12-19T04:56:37.599Z,60.00
2022-12-19T05:01:41.114Z,60.19
2022-12-19T05:06:46.263Z,60.33
2022-12-19T05:11:49.952Z,60.18
2022-12-19T05:16:57.333Z,60.77
2022-12-19T05:22:05.745Z,60.39
2022-12-19T05:27:09.651Z,60.11
2022-12-19T05:32:13.430Z,60.22
2022-12-19T05:37:18.613Z,61.05
2022-12-19T05:42:22.279Z,60.35
2022-12-19T05:47:25.913Z,59.86
2022-12-19T05:52:30.812Z,59.81
2022-12-19T05:57:34.527Z,59.51
2022-12-19T06:02:38.287Z,59.35
2022-12-19T06:07:43.499Z,59.95
2022-12-19T06:12:46.840Z,59.74
2022-12-19T06:17:54.281Z,60.35
2022-12-19T06:22:59.153Z,60.09
2022-12-19T06:28:03.630Z,59.32
2022-12-19T06:33:07.000Z,58.99
2022-12-19T06:38:13.101Z,59.40
2022-12-19T06:43:16.507Z,59.19
2022-12-19T06:48:20.156Z,59.38
2022-12-19T06:53:25.205Z,59.84
2022-12-19T06:58:29.357Z,59.67
2022-12-19T07:03:37.605Z,59.67
2022-12-19T07:08:42.921Z,59.38
2022-12-19T07:13:46.374Z,59.83
2022-12-19T07:18:50.346Z,58.92
2022-12-19T07:23:55.638Z,59.02
2022-12-19T07:29:00.023Z,58.93
2022-12-19T07:34:03.509Z,59.00
2022-12-19T07:39:08.625Z,58.69
2022-12-19T07:44:13.897Z,58.20
2022-12-19T07:49:22.453Z,58.20
2022-12-19T07:54:27.836Z,58.64
2022-12-19T07:59:38.690Z,58.65
2022-12-19T08:04:42.798Z,58.25
2022-12-19T08:09:48.097Z,58.57
2022-12-19T08:14:56.864Z,58.15
2022-12-19T08:20:00.863Z,58.15
2022-12-19T08:25:07.551Z,57.85
2022-12-19T08:30:13.752Z,57.86
2022-12-19T08:35:17.367Z,57.98
2022-12-19T08:40:23.690Z,57.52
2022-12-19T08:45:27.164Z,57.86
2022-12-19T08:50:30.829Z,58.12
2022-12-19T08:55:37.294Z,57.81
2022-12-19T09:00:41.343Z,57.67
2022-12-19T09:05:59.416Z,57.71
2022-12-19T09:11:09.887Z,57.59
2022-12-19T09:16:16.318Z,57.45
2022-12-19T09:21:21.452Z,57.71
2022-12-19T09:26:28.610Z,57.94
2022-12-19T09:31:37.596Z,57.88
2022-12-19T09:36:41.416Z,58.23
2022-12-19T09:42:13.639Z,58.06
2022-12-19T09:47:21.153Z,58.02
2022-12-19T09:52:33.107Z,58.21
2022-12-19T09:57:43.257Z,58.03
2022-12-19T10:02:51.421Z,58.54
2022-12-19T10:08:08.464Z,58.46
2022-12-19T10:13:25.519Z,57.87
2022-12-19T10:18:44.149Z,58.62
2022-12-19T10:24:20.316Z,58.62
2022-12-19T10:30:02.876Z,58.46
2022-12-19T10:35:14.897Z,58.30
2022-12-19T10:40:28.059Z,58.51
2022-12-19T10:45:40.706Z,58.33
2022-12-19T10:50:45.469Z,58.77
2022-12-19T10:55:51.034Z,58.88
2022-12-19T11:01:05.383Z,58.88
2022-12-19T11:06:41.670Z,59.19
2022-12-19T11:13:27.303Z,59.07
2022-12-19T11:23:50.293Z,59.17
2022-12-19T11:30:05.417Z,59.24
2022-12-19T11:30:47.109Z,58.82
2022-12-19T11:33:48.644Z,59.09
2022-12-19T11:38:55.248Z,58.94
2022-12-19T11:44:03.634Z,59.03
2022-12-19T11:49:19.010Z,59.39
2022-12-19T11:54:28.727Z,59.42
2022-12-19T11:59:34.429Z,59.77
2022-12-19T12:04:56.270Z,59.68
2022-12-19T12:14:42.292Z,59.41
2022-12-19T12:27:22.484Z,59.24
2022-12-19T12:31:12.648Z,59.60
2022-12-19T12:31:43.770Z,58.96
2022-12-19T12:35:56.480Z,58.96
2022-12-19T12:38:18.861Z,59.25
2022-12-19T12:43:32.967Z,59.83
2022-12-19T12:48:44.158Z,59.18
2022-12-19T12:53:50.829Z,59.18
2022-12-19T12:59:20.602Z,59.40
2022-12-19T13:04:31.735Z,59.57
2022-12-19T13:09:38.260Z,59.44
2022-12-19T13:14:47.736Z,59.22
2022-12-19T13:19:57.676Z,59.93
2022-12-19T13:25:02.818Z,60.05
2022-12-19T13:30:18.001Z,59.69
2022-12-19T13:37:05.666Z,59.82
2022-12-19T13:41:25.197Z,59.58
2022-12-19T13:46:41.875Z,59.82
2022-12-19T13:51:51.192Z,59.60
2022-12-19T13:56:57.011Z,59.30
2022-12-19T14:02:09.836Z,59.90
2022-12-19T14:07:36.687Z,59.91
2022-12-19T14:13:56.803Z,59.54
2022-12-19T14:18:43.398Z,59.81
2022-12-19T14:23:49.490Z,60.31
2022-12-19T14:29:00.034Z,60.65
2022-12-19T14:34:35.719Z,60.29
2022-12-19T14:39:32.773Z,60.61
2022-12-19T14:52:25.461Z,61.19
2022-12-19T14:54:34.887Z,60.53
2022-12-19T14:56:28.132Z,60.78
2022-12-19T15:01:33.375Z,60.74
2022-12-19T15:07:07.028Z,60.20
2022-12-19T15:14:03.963Z,60.88
2022-12-19T15:17:57.552Z,60.41
2022-12-19T15:23:00.897Z,61.02
2022-12-19T15:28:04.335Z,60.44
2022-12-19T15:33:15.201Z,61.17
2022-12-19T15:38:18.856Z,60.98
2022-12-19T15:44:02.050Z,60.92
2022-12-19T15:48:51.842Z,60.73
2022-12-19T15:54:09.112Z,60.73
2022-12-19T15:59:38.764Z,61.13
2022-12-19T16:04:44.170Z,60.71
2022-12-19T16:09:48.215Z,61.32
2022-12-19T16:15:00.110Z,61.22
2022-12-19T16:20:05.327Z,61.60
2022-12-19T16:25:09.549Z,60.61
2022-12-19T16:30:20.378Z,61.25
2022-12-19T16:36:01.717Z,60.70
2022-12-19T16:40:51.828Z,61.19
2022-12-19T16:46:00.608Z,60.93
2022-12-19T16:51:06.543Z,61.11
2022-12-19T16:56:21.618Z,60.72
2022-12-19T17:01:24.979Z,60.18
2022-12-19T17:06:30.203Z,60.48
2022-12-19T17:11:34.183Z,60.54
2022-12-19T17:16:38.710Z,60.35
2022-12-19T17:21:43.869Z,60.69
2022-12-19T17:26:48.115Z,60.64
2022-12-19T17:31:51.824Z,60.62
2022-12-19T17:36:56.989Z,60.67
2022-12-19T17:42:04.200Z,60.74
2022-12-19T17:47:07.880Z,60.17
2022-12-19T17:52:16.336Z,60.69
2022-12-19T17:57:20.225Z,60.04
2022-12-19T18:02:26.011Z,60.53
2022-12-19T18:07:31.182Z,60.75
2022-12-19T18:12:34.629Z,60.61
2022-12-19T18:17:40.366Z,60.53
2022-12-19T18:22:45.094Z,59.84
2022-12-19T18:27:48.641Z,59.82
2022-12-19T18:32:57.099Z,60.35
2022-12-19T18:38:03.699Z,60.21
2022-12-19T18:43:07.096Z,60.36
2022-12-19T18:48:17.503Z,60.17
2022-12-19T18:53:23.360Z,60.40
2022-12-19T18:58:28.390Z,60.43
2022-12-19T19:03:34.269Z,59.88
2022-12-19T19:08:39.393Z,60.07
2022-12-19T19:13:42.885Z,60.08
2022-12-19T19:18:48.081Z,60.47
2022-12-19T19:23:57.289Z,59.88
2022-12-19T19:29:00.924Z,60.18
2022-12-19T19:34:11.183Z,59.71
2022-12-19T19:39:16.648Z,60.25
2022-12-19T19:44:20.167Z,60.09
2022-12-19T19:49:24.545Z,60.34
2022-12-19T19:54:29.460Z,60.31
2022-12-19T19:59:32.694Z,60.06
2022-12-19T20:04:36.366Z,60.46
2022-12-19T20:09:41.346Z,60.55
2022-12-19T20:14:45.242Z,60.24
2022-12-19T20:19:48.891Z,60.20
2022-12-19T20:24:54.230Z,60.41
2022-12-19T20:29:58.266Z,60.56
2022-12-19T20:35:01.632Z,60.51
2022-12-19T20:40:09.162Z,59.86
2022-12-19T20:45:12.662Z,61.23
2022-12-19T20:50:16.515Z,61.17
2022-12-19T20:55:21.301Z,60.53
2022-12-19T21:00:24.749Z,61.34
2022-12-19T21:05:28.157Z,61.00
2022-12-19T21:10:33.452Z,60.82
2022-12-19T21:15:36.965Z,60.70
2022-12-19T21:20:40.803Z,61.05
2022-12-19T21:25:45.934Z,61.06
2022-12-19T21:30:57.090Z,61.09
2022-12-19T21:36:07.309Z,61.17
2022-12-19T21:41:18.988Z,61.11
2022-12-19T21:46:24.419Z,61.31
2022-12-19T21:51:32.641Z,60.73
2022-12-19T21:56:40.277Z,60.91
2022-12-19T22:01:45.007Z,60.95
2022-12-19T22:06:48.485Z,60.45
2022-12-19T22:11:53.517Z,60.80
2022-12-19T22:16:57.186Z,60.74
2022-12-19T22:22:00.818Z,60.40
2022-12-19T22:27:05.973Z,60.89
2022-12-19T22:32:09.704Z,61.10
2022-12-19T22:37:13.370Z,60.86
2022-12-19T22:42:18.762Z,60.73
2022-12-19T22:47:22.324Z,60.41
2022-12-19T22:52:25.629Z,60.70
2022-12-19T22:57:30.673Z,61.28
2022-12-19T23:02:34.114Z,60.71
2022-12-19T23:07:37.975Z,61.24
2022-12-19T23:12:42.773Z,60.88
2022-12-19T23:17:46.471Z,61.20
2022-12-19T23:22:49.866Z,61.07
2022-12-19T23:27:55.272Z,61.28
2022-12-19T23:32:58.604Z,61.56
2022-12-19T23:38:02.224Z,61.29
2022-12-19T23:43:07.080Z,61.45
2022-12-19T23:48:10.870Z,61.04
2022-12-19T23:53:14.448Z,61.97
2022-12-19T23:58:24.397Z,61.35
